sensor_id;sensor_type;location;lat;lon;timestamp;pressure;altitude;pressure_sealevel;temperature;humidity
78825;BME280;68176;45.554;10.220;2023-07-29T01:23:34;99641.31;;;27.21;46.44
78825;BME280;68176;45.554;10.220;2023-07-29T01:50:11;99598.88;;;26.95;46.63
78825;BME280;68176;45.554;10.220;2023-07-29T02:03:15;99626.97;;;26.99;46.90
78825;BME280;68176;45.554;10.220;2023-07-29T02:17:53;99618.06;;;26.82;46.80
78825;BME280;68176;45.554;10.220;2023-07-29T02:37:37;99646.84;;;26.81;46.94
78825;BME280;68176;45.554;10.220;2023-07-29T02:43:48;99642.16;;;26.77;46.78
78825;BME280;68176;45.554;10.220;2023-07-29T02:49:42;99630.16;;;26.68;47.00
78825;BME280;68176;45.554;10.220;2023-07-29T03:20:16;99656.56;;;26.71;47.22
78825;BME280;68176;45.554;10.220;2023-07-29T03:23:27;99642.03;;;26.55;47.46
78825;BME280;68176;45.554;10.220;2023-07-29T03:29:33;99656.53;;;26.54;47.09
78825;BME280;68176;45.554;10.220;2023-07-29T03:43:57;99646.50;;;26.49;47.43
78825;BME280;68176;45.554;10.220;2023-07-29T03:59:30;99667.28;;;26.54;47.72
78825;BME280;68176;45.554;10.220;2023-07-29T04:21:00;99687.88;;;26.48;47.50
78825;BME280;68176;45.554;10.220;2023-07-29T04:35:23;99694.31;;;26.47;47.57
78825;BME280;68176;45.554;10.220;2023-07-29T04:52:51;99680.09;;;26.35;47.68
78825;BME280;68176;45.554;10.220;2023-07-29T05:39:58;99701.03;;;26.33;47.65
78825;BME280;68176;45.554;10.220;2023-07-29T06:01:43;99701.13;;;26.38;48.14
78825;BME280;68176;45.554;10.220;2023-07-29T06:04:08;99688.78;;;26.03;49.55
78825;BME280;68176;45.554;10.220;2023-07-29T06:09:40;99689.22;;;25.41;51.76
78825;BME280;68176;45.554;10.220;2023-07-29T06:12:43;99692.47;;;25.20;52.25
78825;BME280;68176;45.554;10.220;2023-07-29T06:15:52;99701.19;;;25.16;53.08
78825;BME280;68176;45.554;10.220;2023-07-29T06:18:30;99712.38;;;25.01;52.51
78825;BME280;68176;45.554;10.220;2023-07-29T06:21:04;99711.66;;;25.06;53.79
78825;BME280;68176;45.554;10.220;2023-07-29T06:23:38;99712.44;;;24.83;53.07
78825;BME280;68176;45.554;10.220;2023-07-29T06:26:41;99705.97;;;25.02;53.17
78825;BME280;68176;45.554;10.220;2023-07-29T06:36:51;99717.75;;;25.54;51.35
78825;BME280;68176;45.554;10.220;2023-07-29T06:42:56;99714.59;;;25.69;51.14
78825;BME280;68176;45.554;10.220;2023-07-29T06:45:30;99717.53;;;25.79;50.72
78825;BME280;68176;45.554;10.220;2023-07-29T08:20:22;99729.44;;;27.09;48.90
78825;BME280;68176;45.554;10.220;2023-07-29T08:23:05;99720.47;;;27.03;49.19
78825;BME280;68176;45.554;10.220;2023-07-29T09:42:54;99691.41;;;27.06;50.49
78825;BME280;68176;45.554;10.220;2023-07-29T09:45:23;99696.97;;;27.16;50.36
78825;BME280;68176;45.554;10.220;2023-07-29T09:47:49;99699.75;;;27.04;51.33
78825;BME280;68176;45.554;10.220;2023-07-29T09:50:26;99683.41;;;27.11;50.58
78825;BME280;68176;45.554;10.220;2023-07-29T09:56:26;99678.88;;;27.28;50.78
78825;BME280;68176;45.554;10.220;2023-07-29T09:58:58;99678.53;;;27.41;50.11
78825;BME280;68176;45.554;10.220;2023-07-29T10:02:00;99685.91;;;27.62;50.37
78825;BME280;68176;45.554;10.220;2023-07-29T10:07:36;99677.72;;;27.74;49.99
78825;BME280;68176;45.554;10.220;2023-07-29T10:10:05;99682.94;;;27.80;50.63
78825;BME280;68176;45.554;10.220;2023-07-29T12:46:02;99581.16;;;30.15;45.39
78825;BME280;68176;45.554;10.220;2023-07-29T12:58:27;99573.69;;;30.67;43.07
78825;BME280;68176;45.554;10.220;2023-07-29T13:49:22;99537.03;;;33.26;37.81
78825;BME280;68176;45.554;10.220;2023-07-29T13:51:48;99534.34;;;32.20;39.21
78825;BME280;68176;45.554;10.220;2023-07-29T13:54:13;99534.34;;;32.15;40.49
78825;BME280;68176;45.554;10.220;2023-07-29T13:56:41;99522.16;;;32.51;41.78
78825;BME280;68176;45.554;10.220;2023-07-29T13:59:11;99519.75;;;32.84;38.97
78825;BME280;68176;45.554;10.220;2023-07-29T14:01:41;99514.44;;;33.31;39.20
78825;BME280;68176;45.554;10.220;2023-07-29T14:04:11;99535.88;;;33.09;38.09
78825;BME280;68176;45.554;10.220;2023-07-29T14:06:42;99535.31;;;32.34;38.06
78825;BME280;68176;45.554;10.220;2023-07-29T14:09:12;99535.19;;;32.54;39.49
78825;BME280;68176;45.554;10.220;2023-07-29T14:11:41;99513.09;;;33.00;37.60
78825;BME280;68176;45.554;10.220;2023-07-29T14:14:29;99535.03;;;33.37;36.65
78825;BME280;68176;45.554;10.220;2023-07-29T14:20:09;99513.50;;;33.41;38.04
78825;BME280;68176;45.554;10.220;2023-07-29T14:22:37;99498.97;;;33.93;37.68
78825;BME280;68176;45.554;10.220;2023-07-29T14:25:34;99505.91;;;33.61;36.11
78825;BME280;68176;45.554;10.220;2023-07-29T14:28:23;99513.34;;;32.69;36.85
78825;BME280;68176;45.554;10.220;2023-07-29T14:30:53;99514.09;;;32.80;37.96
78825;BME280;68176;45.554;10.220;2023-07-29T14:33:19;99494.63;;;33.49;36.97
78825;BME280;68176;45.554;10.220;2023-07-29T14:35:47;99502.53;;;34.12;36.94
78825;BME280;68176;45.554;10.220;2023-07-29T14:38:41;99495.56;;;34.75;35.39
78825;BME280;68176;45.554;10.220;2023-07-29T14:41:21;99509.56;;;34.50;35.27
78825;BME280;68176;45.554;10.220;2023-07-29T14:43:46;99508.91;;;34.91;35.35
78825;BME280;68176;45.554;10.220;2023-07-29T14:46:11;99490.75;;;34.35;35.63
78825;BME280;68176;45.554;10.220;2023-07-29T14:48:42;99495.88;;;33.99;36.50
78825;BME280;68176;45.554;10.220;2023-07-29T14:51:12;99509.09;;;33.21;36.91
78825;BME280;68176;45.554;10.220;2023-07-29T14:53:42;99490.06;;;33.68;38.18
78825;BME280;68176;45.554;10.220;2023-07-29T14:56:12;99490.56;;;34.45;36.05
78825;BME280;68176;45.554;10.220;2023-07-29T14:58:42;99477.19;;;34.81;34.60
78825;BME280;68176;45.554;10.220;2023-07-29T15:01:14;99483.72;;;35.12;33.09
78825;BME280;68176;45.554;10.220;2023-07-29T15:03:42;99487.28;;;34.80;33.49
78825;BME280;68176;45.554;10.220;2023-07-29T15:06:11;99460.09;;;35.08;34.09
78825;BME280;68176;45.554;10.220;2023-07-29T15:08:42;99459.91;;;35.31;33.89
78825;BME280;68176;45.554;10.220;2023-07-29T15:11:14;99477.25;;;35.49;32.81
78825;BME280;68176;45.554;10.220;2023-07-29T15:13:43;99478.47;;;35.16;33.69
78825;BME280;68176;45.554;10.220;2023-07-29T15:16:12;99470.81;;;35.45;34.07
78825;BME280;68176;45.554;10.220;2023-07-29T15:19:22;99458.63;;;35.78;32.80
78825;BME280;68176;45.554;10.220;2023-07-29T15:22:17;99443.72;;;35.62;32.71
78825;BME280;68176;45.554;10.220;2023-07-29T15:25:11;99440.00;;;35.94;32.74
78825;BME280;68176;45.554;10.220;2023-07-29T15:27:47;99447.91;;;35.82;34.10
78825;BME280;68176;45.554;10.220;2023-07-29T15:30:44;99441.50;;;35.64;33.37
78825;BME280;68176;45.554;10.220;2023-07-29T15:36:14;99439.13;;;36.21;32.31
78825;BME280;68176;45.554;10.220;2023-07-29T15:38:42;99436.88;;;36.23;32.22
78825;BME280;68176;45.554;10.220;2023-07-29T15:41:37;99439.38;;;36.11;30.95
78825;BME280;68176;45.554;10.220;2023-07-29T15:44:06;99445.03;;;36.01;31.13
78825;BME280;68176;45.554;10.220;2023-07-29T15:49:41;99426.63;;;36.06;32.53
78825;BME280;68176;45.554;10.220;2023-07-29T15:52:09;99428.09;;;36.34;31.74
78825;BME280;68176;45.554;10.220;2023-07-29T15:54:36;99415.50;;;36.47;30.83
78825;BME280;68176;45.554;10.220;2023-07-29T16:00:21;99428.91;;;36.35;31.67
78825;BME280;68176;45.554;10.220;2023-07-29T16:20:22;99402.44;;;35.77;33.72
78825;BME280;68176;45.554;10.220;2023-07-29T16:22:47;99400.94;;;35.71;33.23
78825;BME280;68176;45.554;10.220;2023-07-29T16:25:19;99397.03;;;34.96;32.11
78825;BME280;68176;45.554;10.220;2023-07-29T17:16:57;99406.03;;;32.09;38.61
78825;BME280;68176;45.554;10.220;2023-07-29T17:22:10;99393.72;;;32.22;39.88
78825;BME280;68176;45.554;10.220;2023-07-29T17:24:44;99391.69;;;32.04;40.02
78825;BME280;68176;45.554;10.220;2023-07-29T17:27:12;99401.06;;;31.83;40.05
78825;BME280;68176;45.554;10.220;2023-07-29T17:29:46;99399.38;;;31.92;39.43
78825;BME280;68176;45.554;10.220;2023-07-29T17:32:11;99408.09;;;31.84;39.53
78825;BME280;68176;45.554;10.220;2023-07-29T17:34:48;99410.03;;;31.78;39.16
78825;BME280;68176;45.554;10.220;2023-07-29T17:37:36;99410.19;;;31.43;39.60
78825;BME280;68176;45.554;10.220;2023-07-29T17:40:05;99401.63;;;31.26;40.54
78825;BME280;68176;45.554;10.220;2023-07-29T17:45:54;99415.50;;;30.94;40.84
78825;BME280;68176;45.554;10.220;2023-07-29T17:48:20;99422.28;;;31.06;40.49
78825;BME280;68176;45.554;10.220;2023-07-29T17:50:56;99395.03;;;30.47;41.23
78825;BME280;68176;45.554;10.220;2023-07-29T17:53:31;99399.34;;;30.58;42.21
78825;BME280;68176;45.554;10.220;2023-07-29T17:56:07;99400.19;;;30.54;42.45
78825;BME280;68176;45.554;10.220;2023-07-29T17:58:39;99385.25;;;30.51;42.54
78825;BME280;68176;45.554;10.220;2023-07-29T18:01:52;99388.00;;;30.46;42.49
78825;BME280;68176;45.554;10.220;2023-07-29T18:04:40;99371.22;;;30.09;42.55
78825;BME280;68176;45.554;10.220;2023-07-29T18:07:13;99368.50;;;30.19;42.61
78825;BME280;68176;45.554;10.220;2023-07-29T18:09:47;99362.00;;;30.10;43.59
78825;BME280;68176;45.554;10.220;2023-07-29T18:15:24;99377.69;;;30.08;43.97
78825;BME280;68176;45.554;10.220;2023-07-29T18:18:11;99373.34;;;30.07;43.31
78825;BME280;68176;45.554;10.220;2023-07-29T18:20:39;99376.59;;;29.89;43.13
78825;BME280;68176;45.554;10.220;2023-07-29T18:23:04;99380.66;;;29.91;43.08
78825;BME280;68176;45.554;10.220;2023-07-29T18:25:58;99394.47;;;30.20;43.60
78825;BME280;68176;45.554;10.220;2023-07-29T18:28:49;99380.91;;;29.85;42.56
78825;BME280;68176;45.554;10.220;2023-07-29T18:31:15;99384.47;;;29.90;43.54
78825;BME280;68176;45.554;10.220;2023-07-29T18:33:56;99390.66;;;30.01;45.00
78825;BME280;68176;45.554;10.220;2023-07-29T18:36:42;99382.56;;;29.96;44.71
78825;BME280;68176;45.554;10.220;2023-07-29T18:39:25;99387.97;;;30.06;44.45
78825;BME280;68176;45.554;10.220;2023-07-29T18:45:24;99408.00;;;30.15;45.35
78825;BME280;68176;45.554;10.220;2023-07-29T18:48:04;99391.50;;;30.01;45.22
78825;BME280;68176;45.554;10.220;2023-07-29T18:50:47;99394.94;;;29.77;46.23
78825;BME280;68176;45.554;10.220;2023-07-29T18:53:15;99394.41;;;29.75;46.87
78825;BME280;68176;45.554;10.220;2023-07-29T18:55:41;99415.00;;;29.86;46.32
